sensor_id;sensor_type;location;lat;lon;timestamp;pressure;altitude;pressure_sealevel;temperature;humidity
36192;BME280;22233;42.708;23.360;2022-07-18T00:00:12;96116.66;;;22.27;43.92
36192;BME280;22233;42.708;23.360;2022-07-18T00:02:38;96127.16;;;22.41;44.27
36192;BME280;22233;42.708;23.360;2022-07-18T00:05:03;96127.88;;;22.11;44.80
36192;BME280;22233;42.708;23.360;2022-07-18T00:07:29;96131.53;;;22.19;44.29
36192;BME280;22233;42.708;23.360;2022-07-18T00:09:54;96123.63;;;22.18;43.98
36192;BME280;22233;42.708;23.360;2022-07-18T00:12:20;96123.09;;;21.85;44.50
36192;BME280;22233;42.708;23.360;2022-07-18T00:14:45;96118.16;;;21.75;45.13
36192;BME280;22233;42.708;23.360;2022-07-18T00:17:10;96126.75;;;21.70;44.95
36192;BME280;22233;42.708;23.360;2022-07-18T00:19:36;96130.00;;;21.99;44.24
36192;BME280;22233;42.708;23.360;2022-07-18T00:22:02;96122.22;;;22.04;44.94
36192;BME280;22233;42.708;23.360;2022-07-18T00:24:27;96127.88;;;22.11;43.96
36192;BME280;22233;42.708;23.360;2022-07-18T00:26:53;96123.00;;;22.05;44.19
36192;BME280;22233;42.708;23.360;2022-07-18T00:29:18;96115.97;;;22.11;44.13
36192;BME280;22233;42.708;23.360;2022-07-18T00:31:43;96121.97;;;22.36;45.05
36192;BME280;22233;42.708;23.360;2022-07-18T00:34:09;96116.34;;;22.32;44.03
36192;BME280;22233;42.708;23.360;2022-07-18T00:36:34;96124.00;;;21.93;43.88
36192;BME280;22233;42.708;23.360;2022-07-18T00:38:59;96120.59;;;22.03;45.02
36192;BME280;22233;42.708;23.360;2022-07-18T00:41:25;96116.50;;;21.70;44.75
36192;BME280;22233;42.708;23.360;2022-07-18T00:43:51;96115.34;;;21.71;44.53
36192;BME280;22233;42.708;23.360;2022-07-18T00:46:20;96113.66;;;21.44;44.69
36192;BME280;22233;42.708;23.360;2022-07-18T00:48:45;96116.97;;;21.33;43.92
36192;BME280;22233;42.708;23.360;2022-07-18T00:51:10;96119.00;;;21.56;44.07
36192;BME280;22233;42.708;23.360;2022-07-18T00:53:36;96132.28;;;21.70;43.82
36192;BME280;22233;42.708;23.360;2022-07-18T00:56:02;96133.75;;;21.64;43.80
36192;BME280;22233;42.708;23.360;2022-07-18T00:58:28;96130.81;;;21.76;44.00
36192;BME280;22233;42.708;23.360;2022-07-18T01:00:53;96126.16;;;21.80;44.62
36192;BME280;22233;42.708;23.360;2022-07-18T01:03:37;96126.41;;;21.71;44.40
36192;BME280;22233;42.708;23.360;2022-07-18T01:06:03;96121.84;;;21.40;44.19
36192;BME280;22233;42.708;23.360;2022-07-18T01:08:28;96130.56;;;21.42;43.92
36192;BME280;22233;42.708;23.360;2022-07-18T01:10:53;96127.69;;;21.35;44.94
36192;BME280;22233;42.708;23.360;2022-07-18T01:13:19;96130.97;;;21.02;44.88
36192;BME280;22233;42.708;23.360;2022-07-18T01:15:45;96124.91;;;21.54;45.08
36192;BME280;22233;42.708;23.360;2022-07-18T01:18:11;96125.00;;;21.19;42.99
36192;BME280;22233;42.708;23.360;2022-07-18T01:20:36;96121.13;;;21.04;43.22
36192;BME280;22233;42.708;23.360;2022-07-18T01:23:01;96115.91;;;20.99;42.82
36192;BME280;22233;42.708;23.360;2022-07-18T01:25:27;96114.94;;;20.37;44.00
36192;BME280;22233;42.708;23.360;2022-07-18T01:27:52;96111.41;;;20.55;43.65
36192;BME280;22233;42.708;23.360;2022-07-18T01:30:18;96117.91;;;20.63;43.08
36192;BME280;22233;42.708;23.360;2022-07-18T01:32:43;96114.69;;;20.10;44.50
36192;BME280;22233;42.708;23.360;2022-07-18T01:35:08;96122.91;;;20.42;43.16
36192;BME280;22233;42.708;23.360;2022-07-18T01:37:34;96122.03;;;20.38;43.47
36192;BME280;22233;42.708;23.360;2022-07-18T01:39:59;96118.94;;;20.23;43.77
36192;BME280;22233;42.708;23.360;2022-07-18T01:42:24;96111.78;;;20.38;42.98
36192;BME280;22233;42.708;23.360;2022-07-18T01:44:49;96108.69;;;20.40;43.04
36192;BME280;22233;42.708;23.360;2022-07-18T01:47:15;96118.09;;;19.87;44.12
36192;BME280;22233;42.708;23.360;2022-07-18T01:49:41;96113.34;;;20.04;43.60
36192;BME280;22233;42.708;23.360;2022-07-18T01:52:06;96099.47;;;20.16;42.44
36192;BME280;22233;42.708;23.360;2022-07-18T01:54:33;96109.91;;;19.91;44.31
36192;BME280;22233;42.708;23.360;2022-07-18T01:56:59;96105.97;;;20.08;43.21
36192;BME280;22233;42.708;23.360;2022-07-18T01:59:24;96106.25;;;20.03;42.81
36192;BME280;22233;42.708;23.360;2022-07-18T02:01:50;96097.19;;;20.02;43.77
36192;BME280;22233;42.708;23.360;2022-07-18T02:04:15;96103.41;;;20.15;43.36
36192;BME280;22233;42.708;23.360;2022-07-18T02:06:40;96108.28;;;20.06;43.36
36192;BME280;22233;42.708;23.360;2022-07-18T02:09:06;96105.72;;;20.13;43.38
36192;BME280;22233;42.708;23.360;2022-07-18T02:11:32;96108.81;;;20.11;43.96
36192;BME280;22233;42.708;23.360;2022-07-18T02:13:58;96109.63;;;20.12;44.70
36192;BME280;22233;42.708;23.360;2022-07-18T02:16:23;96105.91;;;20.04;44.32
36192;BME280;22233;42.708;23.360;2022-07-18T02:18:48;96121.91;;;19.83;45.04
36192;BME280;22233;42.708;23.360;2022-07-18T02:21:14;96119.78;;;19.76;44.40
36192;BME280;22233;42.708;23.360;2022-07-18T02:23:39;96115.34;;;19.87;44.10
36192;BME280;22233;42.708;23.360;2022-07-18T02:26:05;96119.81;;;19.48;44.88
36192;BME280;22233;42.708;23.360;2022-07-18T02:28:30;96117.81;;;19.77;44.02
36192;BME280;22233;42.708;23.360;2022-07-18T02:30:55;96127.66;;;19.18;45.17
36192;BME280;22233;42.708;23.360;2022-07-18T02:33:20;96134.41;;;19.64;44.27
36192;BME280;22233;42.708;23.360;2022-07-18T02:35:46;96130.19;;;19.99;43.76
36192;BME280;22233;42.708;23.360;2022-07-18T02:38:11;96132.75;;;20.07;44.61
36192;BME280;22233;42.708;23.360;2022-07-18T02:40:36;96144.53;;;19.88;46.97
36192;BME280;22233;42.708;23.360;2022-07-18T02:43:02;96133.50;;;19.88;46.61
36192;BME280;22233;42.708;23.360;2022-07-18T02:45:28;96148.31;;;19.84;46.69
36192;BME280;22233;42.708;23.360;2022-07-18T02:47:53;96142.66;;;19.48;48.29
36192;BME280;22233;42.708;23.360;2022-07-18T02:50:18;96143.44;;;19.49;47.54
36192;BME280;22233;42.708;23.360;2022-07-18T02:52:44;96147.28;;;19.44;47.64
36192;BME280;22233;42.708;23.360;2022-07-18T02:55:10;96146.50;;;19.31;47.70
36192;BME280;22233;42.708;23.360;2022-07-18T02:57:35;96150.38;;;19.14;47.96
36192;BME280;22233;42.708;23.360;2022-07-18T03:00:02;96155.00;;;19.39;48.13
36192;BME280;22233;42.708;23.360;2022-07-18T03:02:28;96152.78;;;19.44;48.50
36192;BME280;22233;42.708;23.360;2022-07-18T03:04:53;96149.31;;;19.47;48.32
36192;BME280;22233;42.708;23.360;2022-07-18T03:07:18;96160.25;;;19.60;47.77
36192;BME280;22233;42.708;23.360;2022-07-18T03:09:43;96160.94;;;19.41;47.33
36192;BME280;22233;42.708;23.360;2022-07-18T03:12:09;96166.63;;;19.32;47.50
36192;BME280;22233;42.708;23.360;2022-07-18T03:14:34;96160.84;;;19.09;48.63
36192;BME280;22233;42.708;23.360;2022-07-18T03:16:59;96150.16;;;18.67;49.45
36192;BME280;22233;42.708;23.360;2022-07-18T03:19:25;96163.34;;;18.73;49.20
36192;BME280;22233;42.708;23.360;2022-07-18T03:21:50;96160.22;;;18.75;48.73
36192;BME280;22233;42.708;23.360;2022-07-18T03:24:15;96160.94;;;18.84;48.96
36192;BME280;22233;42.708;23.360;2022-07-18T03:26:41;96162.63;;;18.76;49.13
36192;BME280;22233;42.708;23.360;2022-07-18T03:29:06;96148.81;;;18.48;49.36
36192;BME280;22233;42.708;23.360;2022-07-18T03:31:32;96153.66;;;18.39;50.31
36192;BME280;22233;42.708;23.360;2022-07-18T03:33:57;96155.94;;;18.49;49.98
36192;BME280;22233;42.708;23.360;2022-07-18T03:36:22;96159.59;;;18.53;50.62
36192;BME280;22233;42.708;23.360;2022-07-18T03:38:48;96165.63;;;18.71;49.69
36192;BME280;22233;42.708;23.360;2022-07-18T03:41:13;96162.91;;;17.98;50.40
36192;BME280;22233;42.708;23.360;2022-07-18T03:43:39;96163.38;;;18.12;50.45
36192;BME280;22233;42.708;23.360;2022-07-18T03:46:04;96175.75;;;17.93;50.31
36192;BME280;22233;42.708;23.360;2022-07-18T03:48:30;96171.78;;;17.70;50.70
36192;BME280;22233;42.708;23.360;2022-07-18T03:50:55;96172.59;;;17.37;51.12
36192;BME280;22233;42.708;23.360;2022-07-18T03:53:20;96165.97;;;17.38;51.23
36192;BME280;22233;42.708;23.360;2022-07-18T03:55:46;96169.78;;;17.58;51.37
36192;BME280;22233;42.708;23.360;2022-07-18T03:58:11;96175.84;;;17.51;51.17
36192;BME280;22233;42.708;23.360;2022-07-18T04:00:36;96181.22;;;17.48;51.01
36192;BME280;22233;42.708;23.360;2022-07-18T04:03:02;96178.63;;;17.64;51.23
36192;BME280;22233;42.708;23.360;2022-07-18T04:05:27;96182.31;;;17.80;50.94
36192;BME280;22233;42.708;23.360;2022-07-18T04:07:52;96175.44;;;17.74;51.58
36192;BME280;22233;42.708;23.360;2022-07-18T04:10:18;96169.38;;;17.81;51.34
36192;BME280;22233;42.708;23.360;2022-07-18T04:12:50;96174.03;;;17.89;50.37
36192;BME280;22233;42.708;23.360;2022-07-18T04:15:16;96174.81;;;17.89;50.48
36192;BME280;22233;42.708;23.360;2022-07-18T04:17:42;96169.19;;;17.52;51.04
36192;BME280;22233;42.708;23.360;2022-07-18T04:20:08;96169.34;;;17.68;51.10
36192;BME280;22233;42.708;23.360;2022-07-18T04:25:11;96168.44;;;17.64;51.20
36192;BME280;22233;42.708;23.360;2022-07-18T04:27:36;96162.50;;;17.74;51.43
36192;BME280;22233;42.708;23.360;2022-07-18T04:30:02;96164.50;;;17.86;51.14
36192;BME280;22233;42.708;23.360;2022-07-18T04:32:27;96162.13;;;17.97;51.08
36192;BME280;22233;42.708;23.360;2022-07-18T04:34:53;96164.97;;;18.01;51.28
36192;BME280;22233;42.708;23.360;2022-07-18T04:37:18;96164.50;;;18.11;51.61
36192;BME280;22233;42.708;23.360;2022-07-18T04:39:43;96161.34;;;18.21;50.95
36192;BME280;22233;42.708;23.360;2022-07-18T04:42:08;96165.22;;;17.95;51.70
36192;BME280;22233;42.708;23.360;2022-07-18T04:44:33;96172.53;;;18.16;51.64
36192;BME280;22233;42.708;23.360;2022-07-18T04:46:59;96167.84;;;18.16;51.59
36192;BME280;22233;42.708;23.360;2022-07-18T04:49:24;96166.13;;;18.36;49.82
36192;BME280;22233;42.708;23.360;2022-07-18T04:51:49;96161.91;;;18.39;50.39
36192;BME280;22233;42.708;23.360;2022-07-18T04:54:15;96167.94;;;18.57;50.13
36192;BME280;22233;42.708;23.360;2022-07-18T04:56:40;96169.53;;;18.58;49.52
36192;BME280;22233;42.708;23.360;2022-07-18T04:59:05;96163.44;;;18.65;49.26
36192;BME280;22233;42.708;23.360;2022-07-18T05:01:31;96165.53;;;18.68;49.41
36192;BME280;22233;42.708;23.360;2022-07-18T05:03:57;96165.53;;;18.68;49.91
36192;BME280;22233;42.708;23.360;2022-07-18T05:06:22;96160.81;;;18.68;48.97
36192;BME280;22233;42.708;23.360;2022-07-18T05:08:47;96171.03;;;18.68;49.33
36192;BME280;22233;42.708;23.360;2022-07-18T05:11:13;96167.38;;;18.64;49.12
36192;BME280;22233;42.708;23.360;2022-07-18T05:13:38;96162.19;;;18.62;49.82
36192;BME280;22233;42.708;23.360;2022-07-18T05:16:05;96166.53;;;18.88;48.97
36192;BME280;22233;42.708;23.360;2022-07-18T05:18:31;96161.97;;;18.80;48.57
36192;BME280;22233;42.708;23.360;2022-07-18T05:20:56;96167.78;;;18.90;48.81
36192;BME280;22233;42.708;23.360;2022-07-18T05:23:21;96165.00;;;19.31;49.14
36192;BME280;22233;42.708;23.360;2022-07-18T05:25:49;96166.28;;;19.49;48.38
36192;BME280;22233;42.708;23.360;2022-07-18T05:28:14;96163.84;;;19.60;47.32
36192;BME280;22233;42.708;23.360;2022-07-18T05:30:41;96166.66;;;19.48;47.44
36192;BME280;22233;42.708;23.360;2022-07-18T05:33:06;96163.97;;;19.51;47.53
36192;BME280;22233;42.708;23.360;2022-07-18T05:35:32;96170.34;;;19.40;47.06
36192;BME280;22233;42.708;23.360;2022-07-18T05:37:57;96164.88;;;19.55;47.29
36192;BME280;22233;42.708;23.360;2022-07-18T05:40:23;96164.34;;;19.66;47.25
36192;BME280;22233;42.708;23.360;2022-07-18T05:42:48;96161.31;;;19.99;46.70
36192;BME280;22233;42.708;23.360;2022-07-18T05:45:15;96170.13;;;20.37;46.15
36192;BME280;22233;42.708;23.360;2022-07-18T05:47:40;96170.81;;;20.33;46.38
36192;BME280;22233;42.708;23.360;2022-07-18T05:50:06;96161.34;;;20.66;46.24
36192;BME280;22233;42.708;23.360;2022-07-18T05:52:32;96173.22;;;20.86;44.89
36192;BME280;22233;42.708;23.360;2022-07-18T05:54:57;96170.25;;;20.75;45.49
36192;BME280;22233;42.708;23.360;2022-07-18T05:57:22;96157.19;;;20.92;45.83
36192;BME280;22233;42.708;23.360;2022-07-18T05:59:47;96154.97;;;21.17;45.23
36192;BME280;22233;42.708;23.360;2022-07-18T06:02:13;96167.59;;;21.38;43.79
36192;BME280;22233;42.708;23.360;2022-07-18T06:04:39;96172.34;;;21.37;42.68
36192;BME280;22233;42.708;23.360;2022-07-18T06:07:04;96165.22;;;21.56;41.85
36192;BME280;22233;42.708;23.360;2022-07-18T06:09:29;96171.59;;;21.40;40.98
36192;BME280;22233;42.708;23.360;2022-07-18T06:11:56;96168.75;;;20.98;39.13
36192;BME280;22233;42.708;23.360;2022-07-18T06:14:22;96162.88;;;21.38;40.72
36192;BME280;22233;42.708;23.360;2022-07-18T06:16:48;96165.66;;;21.58;39.90
36192;BME280;22233;42.708;23.360;2022-07-18T06:19:13;96164.16;;;21.25;39.99
36192;BME280;22233;42.708;23.360;2022-07-18T06:21:38;96164.28;;;21.48;39.29
36192;BME280;22233;42.708;23.360;2022-07-18T06:24:04;96156.75;;;21.09;38.44
36192;BME280;22233;42.708;23.360;2022-07-18T06:26:29;96162.66;;;21.27;39.37
36192;BME280;22233;42.708;23.360;2022-07-18T06:28:54;96156.47;;;21.53;38.82
36192;BME280;22233;42.708;23.360;2022-07-18T06:31:19;96153.03;;;21.60;37.14
36192;BME280;22233;42.708;23.360;2022-07-18T06:33:48;96147.59;;;21.44;37.03
36192;BME280;22233;42.708;23.360;2022-07-18T06:36:13;96153.69;;;21.34;37.75
36192;BME280;22233;42.708;23.360;2022-07-18T06:38:39;96156.13;;;21.55;38.15
36192;BME280;22233;42.708;23.360;2022-07-18T06:41:05;96143.41;;;21.97;38.35
36192;BME280;22233;42.708;23.360;2022-07-18T06:43:30;96142.78;;;22.07;38.44
36192;BME280;22233;42.708;23.360;2022-07-18T06:45:56;96144.09;;;22.13;36.84
36192;BME280;22233;42.708;23.360;2022-07-18T06:48:22;96145.31;;;21.92;36.68
36192;BME280;22233;42.708;23.360;2022-07-18T06:50:48;96145.94;;;22.05;36.95
36192;BME280;22233;42.708;23.360;2022-07-18T06:53:13;96135.84;;;22.17;36.99
36192;BME280;22233;42.708;23.360;2022-07-18T06:55:39;96125.09;;;22.34;37.35
36192;BME280;22233;42.708;23.360;2022-07-18T06:58:04;96131.16;;;22.44;36.60
36192;BME280;22233;42.708;23.360;2022-07-18T07:00:29;96123.16;;;22.65;35.78
36192;BME280;22233;42.708;23.360;2022-07-18T07:02:55;96118.19;;;22.48;35.02
36192;BME280;22233;42.708;23.360;2022-07-18T07:05:20;96124.41;;;22.68;35.70
36192;BME280;22233;42.708;23.360;2022-07-18T07:07:46;96114.25;;;22.79;35.26
36192;BME280;22233;42.708;23.360;2022-07-18T07:10:11;96131.53;;;22.99;35.06
36192;BME280;22233;42.708;23.360;2022-07-18T07:12:44;96132.44;;;22.50;34.95
36192;BME280;22233;42.708;23.360;2022-07-18T07:15:09;96130.63;;;22.91;34.36
36192;BME280;22233;42.708;23.360;2022-07-18T07:17:35;96127.44;;;22.89;33.81
36192;BME280;22233;42.708;23.360;2022-07-18T07:20:01;96125.72;;;23.08;33.29
36192;BME280;22233;42.708;23.360;2022-07-18T07:22:27;96129.47;;;23.23;34.42
36192;BME280;22233;42.708;23.360;2022-07-18T07:24:52;96124.25;;;23.14;33.88
36192;BME280;22233;42.708;23.360;2022-07-18T07:27:17;96131.28;;;23.42;32.21
36192;BME280;22233;42.708;23.360;2022-07-18T07:29:43;96123.13;;;23.60;33.28
36192;BME280;22233;42.708;23.360;2022-07-18T07:32:08;96123.50;;;23.58;32.25
36192;BME280;22233;42.708;23.360;2022-07-18T07:34:33;96124.97;;;23.79;32.32
36192;BME280;22233;42.708;23.360;2022-07-18T07:36:59;96128.31;;;23.99;31.62
36192;BME280;22233;42.708;23.360;2022-07-18T07:39:25;96122.06;;;24.09;31.06
36192;BME280;22233;42.708;23.360;2022-07-18T07:41:50;96129.56;;;24.08;30.42
36192;BME280;22233;42.708;23.360;2022-07-18T07:44:15;96125.47;;;24.40;30.14
36192;BME280;22233;42.708;23.360;2022-07-18T07:46:41;96122.03;;;23.64;30.88
36192;BME280;22233;42.708;23.360;2022-07-18T07:49:06;96127.91;;;23.97;30.51
36192;BME280;22233;42.708;23.360;2022-07-18T07:51:31;96134.13;;;23.86;30.23
36192;BME280;22233;42.708;23.360;2022-07-18T07:53:56;96136.06;;;24.23;29.94
36192;BME280;22233;42.708;23.360;2022-07-18T07:56:22;96124.25;;;24.37;29.07
36192;BME280;22233;42.708;23.360;2022-07-18T07:58:47;96130.63;;;24.41;28.50
36192;BME280;22233;42.708;23.360;2022-07-18T08:01:12;96127.16;;;24.51;28.84
36192;BME280;22233;42.708;23.360;2022-07-18T08:03:39;96130.38;;;24.09;29.29
36192;BME280;22233;42.708;23.360;2022-07-18T08:06:05;96133.50;;;23.63;29.46
36192;BME280;22233;42.708;23.360;2022-07-18T08:08:31;96130.25;;;23.95;29.83
36192;BME280;22233;42.708;23.360;2022-07-18T08:10:56;96134.03;;;24.17;29.38
36192;BME280;22233;42.708;23.360;2022-07-18T08:13:22;96122.63;;;24.32;28.88
36192;BME280;22233;42.708;23.360;2022-07-18T08:15:48;96118.19;;;24.21;29.79
36192;BME280;22233;42.708;23.360;2022-07-18T08:18:13;96129.00;;;23.88;30.43
36192;BME280;22233;42.708;23.360;2022-07-18T08:20:38;96125.34;;;24.25;29.33
36192;BME280;22233;42.708;23.360;2022-07-18T08:23:05;96130.13;;;24.25;29.87
36192;BME280;22233;42.708;23.360;2022-07-18T08:25:31;96123.09;;;24.42;29.55
36192;BME280;22233;42.708;23.360;2022-07-18T08:27:57;96123.63;;;24.58;29.08
36192;BME280;22233;42.708;23.360;2022-07-18T08:30:23;96126.03;;;24.60;29.08
36192;BME280;22233;42.708;23.360;2022-07-18T08:32:48;96127.34;;;24.25;29.38
36192;BME280;22233;42.708;23.360;2022-07-18T08:35:14;96120.25;;;24.35;30.25
36192;BME280;22233;42.708;23.360;2022-07-18T08:37:39;96124.47;;;24.66;31.12
36192;BME280;22233;42.708;23.360;2022-07-18T08:40:05;96124.28;;;25.03;31.34
36192;BME280;22233;42.708;23.360;2022-07-18T08:42:30;96120.22;;;24.86;30.70
36192;BME280;22233;42.708;23.360;2022-07-18T08:44:57;96119.16;;;25.16;30.92
36192;BME280;22233;42.708;23.360;2022-07-18T08:47:22;96125.66;;;25.42;31.05
36192;BME280;22233;42.708;23.360;2022-07-18T08:49:49;96122.94;;;25.67;30.17
36192;BME280;22233;42.708;23.360;2022-07-18T08:52:15;96120.97;;;25.75;30.62
36192;BME280;22233;42.708;23.360;2022-07-18T08:54:40;96116.19;;;25.89;29.81
36192;BME280;22233;42.708;23.360;2022-07-18T08:57:06;96117.84;;;25.94;29.58
36192;BME280;22233;42.708;23.360;2022-07-18T08:59:31;96111.88;;;26.21;30.15
36192;BME280;22233;42.708;23.360;2022-07-18T09:01:56;96123.41;;;26.19;30.30
36192;BME280;22233;42.708;23.360;2022-07-18T09:04:31;96111.47;;;26.37;30.11
36192;BME280;22233;42.708;23.360;2022-07-18T09:06:56;96113.47;;;26.15;30.33
36192;BME280;22233;42.708;23.360;2022-07-18T09:09:23;96108.25;;;26.78;30.77
36192;BME280;22233;42.708;23.360;2022-07-18T09:11:52;96109.75;;;27.07;29.90
36192;BME280;22233;42.708;23.360;2022-07-18T09:14:28;96103.41;;;26.96;29.39
36192;BME280;22233;42.708;23.360;2022-07-18T09:17:10;96106.56;;;27.05;29.18
36192;BME280;22233;42.708;23.360;2022-07-18T09:19:36;96106.16;;;27.07;29.73
36192;BME280;22233;42.708;23.360;2022-07-18T09:22:15;96104.53;;;27.17;29.91
36192;BME280;22233;42.708;23.360;2022-07-18T09:27:36;96110.13;;;27.13;29.09
36192;BME280;22233;42.708;23.360;2022-07-18T09:30:08;96107.50;;;26.59;29.27
36192;BME280;22233;42.708;23.360;2022-07-18T09:32:34;96110.97;;;26.99;28.90
36192;BME280;22233;42.708;23.360;2022-07-18T09:35:07;96103.00;;;27.01;29.68
36192;BME280;22233;42.708;23.360;2022-07-18T09:37:33;96109.03;;;26.82;29.65
36192;BME280;22233;42.708;23.360;2022-07-18T09:40:14;96102.13;;;27.29;29.86
36192;BME280;22233;42.708;23.360;2022-07-18T09:42:40;96107.91;;;27.60;29.39
36192;BME280;22233;42.708;23.360;2022-07-18T09:45:05;96107.16;;;27.56;29.08
36192;BME280;22233;42.708;23.360;2022-07-18T09:47:31;96111.34;;;27.93;29.21
36192;BME280;22233;42.708;23.360;2022-07-18T09:49:56;96105.00;;;27.89;28.49
36192;BME280;22233;42.708;23.360;2022-07-18T09:52:21;96110.97;;;27.84;28.23
36192;BME280;22233;42.708;23.360;2022-07-18T09:54:47;96101.19;;;27.50;28.76
36192;BME280;22233;42.708;23.360;2022-07-18T09:57:25;96097.78;;;27.95;29.22
36192;BME280;22233;42.708;23.360;2022-07-18T09:59:51;96091.31;;;28.05;28.91
36192;BME280;22233;42.708;23.360;2022-07-18T10:02:17;96103.50;;;28.26;29.36
36192;BME280;22233;42.708;23.360;2022-07-18T10:04:43;96093.88;;;28.31;28.59
36192;BME280;22233;42.708;23.360;2022-07-18T10:07:09;96085.84;;;28.36;28.59
36192;BME280;22233;42.708;23.360;2022-07-18T10:09:34;96088.88;;;28.56;29.55
36192;BME280;22233;42.708;23.360;2022-07-18T10:12:02;96087.81;;;28.81;29.05
36192;BME280;22233;42.708;23.360;2022-07-18T10:14:28;96084.41;;;29.00;29.59
36192;BME280;22233;42.708;23.360;2022-07-18T10:16:54;96083.28;;;28.94;27.50
36192;BME280;22233;42.708;23.360;2022-07-18T10:19:20;96079.16;;;28.72;28.46
36192;BME280;22233;42.708;23.360;2022-07-18T10:21:48;96066.84;;;28.65;28.43
36192;BME280;22233;42.708;23.360;2022-07-18T10:24:16;96073.00;;;28.46;28.98
36192;BME280;22233;42.708;23.360;2022-07-18T10:26:42;96071.44;;;28.41;29.63
36192;BME280;22233;42.708;23.360;2022-07-18T10:29:13;96070.13;;;28.08;29.38
36192;BME280;22233;42.708;23.360;2022-07-18T10:31:39;96068.56;;;28.48;29.69
36192;BME280;22233;42.708;23.360;2022-07-18T10:36:36;96067.00;;;28.85;28.18
36192;BME280;22233;42.708;23.360;2022-07-18T10:42:11;96066.56;;;28.49;29.16
36192;BME280;22233;42.708;23.360;2022-07-18T10:57:38;96039.50;;;29.15;27.33
36192;BME280;22233;42.708;23.360;2022-07-18T11:00:13;96042.59;;;29.24;28.01
36192;BME280;22233;42.708;23.360;2022-07-18T11:02:40;96040.44;;;29.62;28.82
36192;BME280;22233;42.708;23.360;2022-07-18T11:10:17;96040.59;;;29.52;27.50
36192;BME280;22233;42.708;23.360;2022-07-18T11:15:53;96031.72;;;29.84;27.72
36192;BME280;22233;42.708;23.360;2022-07-18T11:18:18;96041.44;;;29.48;28.59
36192;BME280;22233;42.708;23.360;2022-07-18T11:20:44;96035.63;;;28.29;29.06
36192;BME280;22233;42.708;23.360;2022-07-18T11:23:14;96026.16;;;28.61;28.50
36192;BME280;22233;42.708;23.360;2022-07-18T11:25:40;96032.53;;;28.20;28.99
36192;BME280;22233;42.708;23.360;2022-07-18T11:28:08;96027.25;;;28.71;28.59
36192;BME280;22233;42.708;23.360;2022-07-18T11:30:34;96025.94;;;28.79;29.80
36192;BME280;22233;42.708;23.360;2022-07-18T11:33:00;96024.91;;;29.31;30.32
36192;BME280;22233;42.708;23.360;2022-07-18T11:35:25;96033.56;;;29.67;29.96
36192;BME280;22233;42.708;23.360;2022-07-18T11:37:51;96017.19;;;29.93;28.18
36192;BME280;22233;42.708;23.360;2022-07-18T11:40:17;96019.56;;;30.18;28.04
36192;BME280;22233;42.708;23.360;2022-07-18T11:42:42;96023.53;;;30.44;27.82
36192;BME280;22233;42.708;23.360;2022-07-18T11:45:09;96019.22;;;30.39;25.46
36192;BME280;22233;42.708;23.360;2022-07-18T11:47:50;96012.19;;;30.51;26.80
36192;BME280;22233;42.708;23.360;2022-07-18T11:50:17;96011.50;;;30.87;27.40
36192;BME280;22233;42.708;23.360;2022-07-18T11:52:43;96007.56;;;31.21;27.78
36192;BME280;22233;42.708;23.360;2022-07-18T11:55:10;96008.34;;;31.41;26.33
36192;BME280;22233;42.708;23.360;2022-07-18T11:57:35;96006.13;;;31.33;25.91
36192;BME280;22233;42.708;23.360;2022-07-18T12:00:15;96006.44;;;30.78;27.78
36192;BME280;22233;42.708;23.360;2022-07-18T12:05:35;96000.34;;;30.83;28.68
36192;BME280;22233;42.708;23.360;2022-07-18T12:08:00;96004.22;;;31.10;27.65
36192;BME280;22233;42.708;23.360;2022-07-18T12:10:26;96001.28;;;30.77;27.92
36192;BME280;22233;42.708;23.360;2022-07-18T12:12:51;95998.63;;;31.10;27.49
36192;BME280;22233;42.708;23.360;2022-07-18T12:15:17;95988.69;;;30.85;27.57
36192;BME280;22233;42.708;23.360;2022-07-18T12:17:44;95991.22;;;30.99;27.46
36192;BME280;22233;42.708;23.360;2022-07-18T12:22:35;95985.19;;;31.01;27.20
36192;BME280;22233;42.708;23.360;2022-07-18T12:25:00;95990.63;;;31.44;26.39
36192;BME280;22233;42.708;23.360;2022-07-18T12:29:54;95989.00;;;31.80;27.02
36192;BME280;22233;42.708;23.360;2022-07-18T12:32:23;95994.53;;;31.83;26.74
36192;BME280;22233;42.708;23.360;2022-07-18T12:35:02;95997.41;;;32.29;26.92
36192;BME280;22233;42.708;23.360;2022-07-18T12:37:29;95995.19;;;32.37;25.84
36192;BME280;22233;42.708;23.360;2022-07-18T12:39:58;95988.31;;;32.09;26.56
36192;BME280;22233;42.708;23.360;2022-07-18T12:42:31;95981.47;;;32.10;26.85
36192;BME280;22233;42.708;23.360;2022-07-18T12:44:57;95985.28;;;31.99;25.99
36192;BME280;22233;42.708;23.360;2022-07-18T12:47:23;95982.78;;;31.72;26.93
36192;BME280;22233;42.708;23.360;2022-07-18T12:49:48;95976.88;;;31.83;27.17
36192;BME280;22233;42.708;23.360;2022-07-18T12:52:13;95981.44;;;32.26;26.55
36192;BME280;22233;42.708;23.360;2022-07-18T12:54:39;95986.47;;;32.02;26.81
36192;BME280;22233;42.708;23.360;2022-07-18T12:57:04;95977.13;;;32.38;26.51
36192;BME280;22233;42.708;23.360;2022-07-18T12:59:29;95978.41;;;31.88;25.83
36192;BME280;22233;42.708;23.360;2022-07-18T13:01:55;95988.13;;;32.16;27.26
36192;BME280;22233;42.708;23.360;2022-07-18T13:04:20;95980.16;;;32.60;25.87
36192;BME280;22233;42.708;23.360;2022-07-18T13:06:45;95983.91;;;32.53;25.12
36192;BME280;22233;42.708;23.360;2022-07-18T13:09:10;95976.03;;;32.48;25.98
36192;BME280;22233;42.708;23.360;2022-07-18T13:11:36;95971.69;;;32.31;25.66
36192;BME280;22233;42.708;23.360;2022-07-18T13:14:02;95977.25;;;32.47;26.26
36192;BME280;22233;42.708;23.360;2022-07-18T13:16:27;95964.53;;;32.72;25.74
36192;BME280;22233;42.708;23.360;2022-07-18T13:18:53;95974.41;;;33.06;25.54
36192;BME280;22233;42.708;23.360;2022-07-18T13:21:18;95971.34;;;33.00;24.96
36192;BME280;22233;42.708;23.360;2022-07-18T13:23:43;95965.56;;;32.78;25.27